Time;durP1;ratioP1;P1;durP2;ratioP2;P2;SDS_P1;SDS_P2;PMS_P1;PMS_P2;Temp;Humidity;BMP_temperature;BMP_pressure;BME280_temperature;BME280_humidity;BME280_pressure;Samples;Min_cycle;Max_cycle;Signal;HPM_P1;HPM_P2
2022/01/26 00:07:20;;;;;;;39.73;24.53;;;4.10;79.20;;;;;;5053897;28;20040;-75
2022/01/26 00:09:46;;;;;;;38.33;25.27;;;4.10;79.20;;;;;;5054010;28;20049;-75
2022/01/26 00:12:12;;;;;;;44.63;25.40;;;4.10;79.20;;;;;;5053819;28;20028;-75
2022/01/26 00:14:42;;;;;;;38.53;25.33;;;4.20;79.30;;;;;;5053921;28;20017;-76
2022/01/26 00:17:11;;;;;;;44.07;26.40;;;4.20;79.20;;;;;;5053993;28;20029;-75
2022/01/26 00:19:53;;;;;;;37.13;25.07;;;4.20;79.20;;;;;;5052530;28;20023;-75
2022/01/26 00:25:20;;;;;;;42.40;26.43;;;4.10;79.40;;;;;;5053980;28;20033;-75
2022/01/26 00:38:42;;;;;;;42.93;25.40;;;4.20;79.40;;;;;;5053945;28;20066;-77
2022/01/26 00:41:30;;;;;;;39.67;26.37;;;4.20;79.50;;;;;;5052385;28;20366;-75
2022/01/26 00:43:57;;;;;;;43.33;28.73;;;4.20;79.50;;;;;;5053571;28;20071;-75
2022/01/26 00:46:23;;;;;;;50.67;31.37;;;4.30;79.10;;;;;;5053580;28;20099;-79
2022/01/26 00:48:50;;;;;;;52.60;32.70;;;4.30;78.80;;;;;;5053550;28;20025;-78
2022/01/26 00:51:19;;;;;;;44.87;30.30;;;4.20;78.40;;;;;;5053621;28;20025;-80
2022/01/26 00:53:50;;;;;;;53.77;30.67;;;4.20;78.20;;;;;;5053393;28;20051;-75
2022/01/26 00:56:17;;;;;;;46.50;30.10;;;4.20;78.40;;;;;;5053622;28;20403;-75
2022/01/26 00:58:43;;;;;;;47.63;31.27;;;4.10;78.40;;;;;;5053208;28;20036;-75
2022/01/26 01:01:09;;;;;;;51.40;32.23;;;4.10;78.50;;;;;;5053348;28;20024;-75
2022/01/26 01:03:37;;;;;;;50.07;30.53;;;4.10;78.50;;;;;;5051529;28;20032;-76
2022/01/26 01:06:10;;;;;;;51.77;30.30;;;4.10;79.00;;;;;;5052908;28;20020;-75
2022/01/26 01:08:37;;;;;;;48.37;30.63;;;4.00;79.10;;;;;;5051620;28;20142;-74
2022/01/26 01:11:03;;;;;;;47.33;29.37;;;4.00;79.40;;;;;;5053229;28;20024;-80
2022/01/26 01:13:38;;;;;;;45.63;29.00;;;4.00;79.50;;;;;;5052218;28;20096;-74
2022/01/26 01:16:13;;;;;;;41.77;27.93;;;4.00;79.70;;;;;;5053290;28;20028;-76
2022/01/26 01:18:45;;;;;;;44.33;27.27;;;4.00;79.90;;;;;;5053115;28;20107;-75
2022/01/26 01:34:35;;;;;;;42.00;26.87;;;4.00;79.00;;;;;;5045086;28;20036;-75
2022/01/26 01:37:05;;;;;;;46.20;27.40;;;4.00;78.90;;;;;;5051582;28;20022;-75
2022/01/26 01:39:33;;;;;;;42.63;27.03;;;4.00;79.10;;;;;;5052990;28;20028;-79
2022/01/26 01:42:00;;;;;;;41.00;27.33;;;4.00;79.10;;;;;;5052811;28;20024;-75
2022/01/26 01:44:26;;;;;;;40.23;26.73;;;4.00;79.40;;;;;;5052906;28;20059;-76
2022/01/26 01:46:53;;;;;;;41.87;27.40;;;4.00;79.50;;;;;;5053025;28;20359;-74
2022/01/26 01:49:19;;;;;;;39.20;26.33;;;3.90;79.50;;;;;;5052636;28;20481;-75
2022/01/26 01:51:52;;;;;;;35.40;24.03;;;3.90;79.50;;;;;;5052604;28;20061;-75
2022/01/26 01:54:19;;;;;;;44.13;25.10;;;3.90;79.30;;;;;;5052853;28;20442;-75
2022/01/26 01:56:56;;;;;;;40.77;26.00;;;3.90;78.90;;;;;;5052481;28;20035;-75
2022/01/26 01:59:24;;;;;;;35.67;25.07;;;3.90;78.60;;;;;;5049523;28;20083;-75
2022/01/26 02:01:49;;;;;;;35.90;23.40;;;3.90;78.50;;;;;;5049705;28;20108;-75
2022/01/26 02:04:15;;;;;;;41.67;24.33;;;3.90;78.50;;;;;;5050229;28;20104;-75
2022/01/26 02:06:43;;;;;;;37.13;21.80;;;3.80;78.40;;;;;;5052363;28;20033;-75
2022/01/26 02:09:10;;;;;;;35.40;22.47;;;3.80;78.20;;;;;;5052657;28;20103;-75
2022/01/26 02:11:53;;;;;;;33.13;22.07;;;3.80;77.90;;;;;;5052539;28;20052;-76
2022/01/26 02:15:04;;;;;;;33.85;22.50;;;3.70;77.70;;;;;;5051052;28;20070;-75
2022/01/26 02:53:46;;;;;;;40.77;22.77;;;3.40;77.30;;;;;;5055690;28;20037;-75
2022/01/26 02:55:50;;;;;;;35.07;23.33;;;3.40;77.20;;;;;;5044610;28;20055;-75
2022/01/26 03:03:42;;;;;;;38.77;23.17;;;3.20;77.60;;;;;;5055417;28;20121;-75
2022/01/26 03:06:14;;;;;;;37.13;22.43;;;3.20;77.70;;;;;;5055592;28;20231;-79
2022/01/26 03:08:50;;;;;;;36.70;22.53;;;3.20;77.60;;;;;;5055221;28;20083;-75
2022/01/26 03:11:16;;;;;;;34.77;22.90;;;3.20;77.70;;;;;;5055117;28;20017;-75
2022/01/26 03:13:58;;;;;;;38.33;22.87;;;3.10;77.80;;;;;;5055051;28;20020;-75
2022/01/26 03:16:32;;;;;;;33.27;22.27;;;3.10;77.90;;;;;;5055357;28;20028;-78
2022/01/26 03:22:18;;;;;;;35.43;22.00;;;3.00;77.80;;;;;;5055314;28;20477;-74
2022/01/26 03:38:21;;;;;;;35.57;22.53;;;2.90;78.00;;;;;;5054927;28;20043;-79
2022/01/26 03:40:55;;;;;;;37.70;21.77;;;2.90;78.00;;;;;;5054903;28;20016;-75
2022/01/26 03:43:21;;;;;;;34.07;20.73;;;2.90;77.70;;;;;;5054663;28;20044;-76
2022/01/26 03:45:47;;;;;;;35.20;22.30;;;2.90;77.80;;;;;;5054671;28;20508;-75
2022/01/26 03:48:12;;;;;;;36.80;22.27;;;2.80;77.70;;;;;;5053322;28;20546;-74
2022/01/26 03:50:38;;;;;;;40.90;21.60;;;2.80;77.70;;;;;;5054250;28;20029;-75
2022/01/26 03:53:04;;;;;;;37.63;22.67;;;2.80;77.80;;;;;;5054733;28;20061;-76
2022/01/26 03:55:29;;;;;;;40.07;22.53;;;2.70;77.80;;;;;;5054431;28;20063;-75
2022/01/26 03:57:55;;;;;;;39.00;22.63;;;2.70;78.20;;;;;;5054415;28;20033;-74
2022/01/26 04:00:21;;;;;;;33.53;22.10;;;2.70;78.20;;;;;;5054538;28;20096;-75
2022/01/26 04:02:47;;;;;;;34.07;22.17;;;2.70;78.20;;;;;;5054328;28;20029;-75
2022/01/26 04:05:13;;;;;;;34.07;21.67;;;2.70;78.20;;;;;;5054067;28;20025;-76
2022/01/26 04:07:41;;;;;;;34.37;23.10;;;2.70;78.20;;;;;;5053734;28;20059;-75
2022/01/26 04:10:21;;;;;;;35.77;22.13;;;2.70;78.00;;;;;;5054267;28;20132;-79
2022/01/26 04:12:47;;;;;;;34.17;22.83;;;2.70;77.90;;;;;;5053975;28;20116;-75
2022/01/26 04:15:31;;;;;;;37.43;22.93;;;2.70;77.80;;;;;;5054006;28;20021;-76
2022/01/26 04:17:57;;;;;;;34.30;21.38;;;2.70;77.80;;;;;;5053971;28;20537;-75
2022/01/26 04:20:27;;;;;;;37.13;23.10;;;2.60;77.40;;;;;;5053791;28;20056;-75
2022/01/26 04:23:08;;;;;;;32.67;20.67;;;2.60;77.50;;;;;;5054120;28;20024;-75
2022/01/26 04:25:35;;;;;;;34.50;22.07;;;2.60;77.50;;;;;;5054151;28;20164;-75
2022/01/26 04:28:06;;;;;;;32.83;21.97;;;2.50;77.50;;;;;;5053951;28;20061;-76
2022/01/26 04:30:32;;;;;;;37.57;22.00;;;2.50;77.40;;;;;;5053885;28;20044;-75
2022/01/26 04:33:03;;;;;;;35.83;21.90;;;2.50;77.40;;;;;;5053859;28;20021;-75
2022/01/26 04:35:29;;;;;;;32.30;21.63;;;2.50;77.60;;;;;;5053777;28;20013;-75
2022/01/26 04:40:47;;;;;;;34.03;22.67;;;2.40;77.60;;;;;;5053909;28;20455;-75
2022/01/26 04:43:18;;;;;;;35.73;20.67;;;2.40;77.80;;;;;;5053804;28;20045;-75
2022/01/26 04:45:44;;;;;;;38.07;22.30;;;2.40;77.80;;;;;;5053965;28;20017;-75
2022/01/26 04:48:10;;;;;;;34.90;21.50;;;2.40;77.90;;;;;;5053542;28;20039;-75
2022/01/26 04:50:36;;;;;;;30.93;21.63;;;2.30;78.10;;;;;;5052055;28;20536;-75
2022/01/26 04:53:01;;;;;;;37.03;22.07;;;2.40;78.30;;;;;;5053343;28;20032;-75
2022/01/26 04:55:27;;;;;;;37.83;22.47;;;2.30;78.30;;;;;;5053365;28;20075;-75
2022/01/26 04:57:53;;;;;;;37.10;22.23;;;2.30;78.30;;;;;;5052847;28;20029;-75
2022/01/26 05:00:19;;;;;;;31.97;21.43;;;2.30;78.40;;;;;;5053395;28;20021;-75
2022/01/26 05:02:45;;;;;;;35.10;22.63;;;2.30;78.30;;;;;;5052211;28;20031;-75
2022/01/26 05:05:10;;;;;;;35.17;21.83;;;2.30;78.50;;;;;;5053470;28;20109;-75
2022/01/26 05:07:36;;;;;;;37.27;21.60;;;2.30;78.20;;;;;;5052662;28;20104;-75
2022/01/26 05:10:03;;;;;;;35.20;22.60;;;2.30;78.30;;;;;;5053030;28;20049;-76
2022/01/26 05:12:29;;;;;;;35.50;22.10;;;2.30;78.50;;;;;;5053081;28;20052;-75
2022/01/26 05:14:55;;;;;;;37.03;22.37;;;2.30;78.50;;;;;;5052977;28;20021;-75
2022/01/26 05:17:23;;;;;;;32.97;21.37;;;2.20;78.30;;;;;;5052951;28;20040;-76
2022/01/26 05:19:53;;;;;;;33.03;22.10;;;2.30;78.50;;;;;;5053027;28;20039;-76
2022/01/26 05:22:19;;;;;;;31.13;21.67;;;2.20;78.30;;;;;;5053123;28;20025;-75
2022/01/26 05:24:45;;;;;;;35.07;21.57;;;2.20;78.20;;;;;;5052726;28;20146;-75
2022/01/26 05:27:11;;;;;;;33.93;19.87;;;2.20;78.30;;;;;;5052865;28;20443;-76
2022/01/26 05:29:36;;;;;;;36.70;21.83;;;2.20;78.20;;;;;;5052930;28;21015;-79
2022/01/26 05:32:02;;;;;;;33.53;20.90;;;2.10;78.10;;;;;;5052754;28;20021;-76
2022/01/26 05:34:28;;;;;;;32.97;21.17;;;2.10;78.10;;;;;;5053043;28;20377;-76
2022/01/26 05:36:54;;;;;;;39.10;23.10;;;2.10;78.20;;;;;;5052730;28;20385;-76
2022/01/26 05:39:20;;;;;;;33.07;21.47;;;2.20;78.10;;;;;;5052876;28;20024;-76
2022/01/26 05:41:45;;;;;;;33.67;21.97;;;2.10;78.10;;;;;;5052736;28;20449;-76
2022/01/26 05:44:11;;;;;;;34.13;22.40;;;2.10;78.20;;;;;;5052930;28;20112;-76
2022/01/26 05:46:44;;;;;;;36.50;22.43;;;2.10;78.20;;;;;;5052914;28;20071;-76
2022/01/26 05:49:12;;;;;;;39.23;23.13;;;2.10;77.60;;;;;;5054380;28;20025;-77
2022/01/26 05:51:38;;;;;;;38.93;22.90;;;2.10;78.20;;;;;;5056374;28;20104;-75
2022/01/26 05:54:05;;;;;;;34.63;22.27;;;2.10;77.60;;;;;;5056488;28;20428;-76
2022/01/26 05:56:31;;;;;;;39.13;23.60;;;2.00;77.60;;;;;;5055415;28;20414;-76
2022/01/26 05:58:57;;;;;;;35.33;22.60;;;2.00;77.50;;;;;;5056697;28;20036;-79
2022/01/26 06:01:23;;;;;;;37.57;23.40;;;2.00;77.70;;;;;;5056776;28;20055;-79
2022/01/26 06:03:49;;;;;;;35.53;22.23;;;1.90;77.60;;;;;;5056787;28;20048;-76
2022/01/26 06:06:16;;;;;;;42.60;23.03;;;1.90;77.40;;;;;;5056631;28;20036;-76
2022/01/26 06:08:42;;;;;;;45.17;23.13;;;1.90;77.30;;;;;;5056453;28;20041;-75
2022/01/26 06:11:07;;;;;;;43.20;24.97;;;1.90;77.30;;;;;;5056486;28;20025;-76
2022/01/26 06:13:33;;;;;;;43.57;25.07;;;1.80;77.30;;;;;;5056215;28;20055;-76
2022/01/26 06:15:59;;;;;;;44.20;24.50;;;1.80;77.00;;;;;;5056340;28;20029;-76
2022/01/26 06:18:25;;;;;;;37.47;24.53;;;1.80;77.20;;;;;;5056151;28;20024;-76
2022/01/26 06:20:51;;;;;;;42.60;25.30;;;1.80;77.20;;;;;;5056235;28;20028;-76
2022/01/26 06:23:17;;;;;;;45.07;26.03;;;1.70;77.10;;;;;;5056370;28;20036;-76
2022/01/26 06:25:44;;;;;;;44.07;25.57;;;1.70;77.20;;;;;;5056192;28;20033;-76
2022/01/26 06:28:12;;;;;;;42.17;24.97;;;1.70;77.00;;;;;;5055997;28;20033;-75
2022/01/26 06:30:39;;;;;;;46.87;24.87;;;1.70;77.00;;;;;;5056158;28;20484;-75
2022/01/26 06:33:05;;;;;;;38.30;24.53;;;1.70;77.20;;;;;;5056389;28;20041;-75
2022/01/26 06:35:34;;;;;;;42.40;24.83;;;1.70;77.20;;;;;;5055919;28;20021;-75
2022/01/26 06:38:00;;;;;;;40.17;25.10;;;1.70;77.20;;;;;;5056037;28;20465;-81
2022/01/26 06:40:26;;;;;;;40.13;24.77;;;1.60;77.10;;;;;;5054662;28;20036;-76
2022/01/26 06:42:58;;;;;;;36.67;24.30;;;1.60;77.20;;;;;;5055677;28;20035;-75
2022/01/26 06:45:28;;;;;;;38.97;24.95;;;1.60;77.30;;;;;;5055613;28;20090;-77
2022/01/26 06:50:19;;;;;;;38.63;23.03;;;1.60;77.50;;;;;;5055576;28;20021;-74
2022/01/26 06:52:47;;;;;;;41.33;24.17;;;1.60;77.70;;;;;;5055522;28;20036;-74
2022/01/26 06:55:14;;;;;;;43.40;24.50;;;1.60;77.70;;;;;;5056124;28;20040;-74
2022/01/26 06:57:40;;;;;;;40.63;24.07;;;1.50;77.60;;;;;;5055374;28;20029;-74
2022/01/26 07:00:07;;;;;;;41.97;23.23;;;1.50;77.70;;;;;;5055035;28;20362;-74
2022/01/26 07:02:33;;;;;;;45.93;24.37;;;1.50;77.70;;;;;;5055326;28;20033;-73
2022/01/26 07:04:58;;;;;;;46.50;24.70;;;1.50;77.80;;;;;;5055394;28;20028;-83
2022/01/26 07:07:24;;;;;;;41.57;24.93;;;1.50;77.90;;;;;;5055130;28;20047;-76
2022/01/26 07:09:50;;;;;;;40.80;26.30;;;1.50;77.90;;;;;;5055075;28;20406;-76
2022/01/26 07:12:15;;;;;;;46.23;25.60;;;1.50;78.00;;;;;;5053339;28;20114;-79
2022/01/26 07:22:42;;;;;;;47.08;26.25;;;1.60;78.60;;;;;;5022921;28;20046;-76
2022/01/26 07:25:08;;;;;;;40.73;24.93;;;1.60;78.50;;;;;;4994830;28;20171;-75
2022/01/26 07:27:33;;;;;;;42.60;25.43;;;1.60;78.60;;;;;;4995110;28;20034;-82
2022/01/26 07:30:00;;;;;;;41.17;25.93;;;1.60;78.60;;;;;;4994881;28;20022;-83
2022/01/26 07:32:28;;;;;;;44.53;25.90;;;1.60;78.50;;;;;;4995345;28;20092;-83
2022/01/26 07:34:54;;;;;;;46.37;25.23;;;1.60;78.70;;;;;;4995591;28;20026;-77
2022/01/26 07:37:21;;;;;;;43.33;26.43;;;1.60;79.00;;;;;;4995175;28;20376;-76
2022/01/26 07:40:02;;;;;;;56.40;26.63;;;1.70;79.20;;;;;;4995082;28;20026;-74
2022/01/26 07:42:28;;;;;;;53.33;25.80;;;1.70;79.10;;;;;;4995265;28;20395;-75
2022/01/26 07:44:54;;;;;;;47.40;27.07;;;1.80;79.00;;;;;;4994933;28;20028;-75
2022/01/26 07:47:19;;;;;;;48.90;28.87;;;1.80;79.60;;;;;;4994661;28;20050;-75
2022/01/26 07:49:45;;;;;;;51.30;27.70;;;1.90;79.00;;;;;;4995098;28;20113;-81
2022/01/26 07:52:13;;;;;;;46.00;27.93;;;1.90;78.90;;;;;;4994878;28;20030;-73
2022/01/26 07:54:39;;;;;;;46.63;26.70;;;2.00;79.00;;;;;;4993270;28;20030;-81
2022/01/26 07:57:07;;;;;;;47.87;27.33;;;2.10;79.00;;;;;;4994699;28;20456;-77
2022/01/26 07:59:33;;;;;;;47.07;26.70;;;2.20;79.10;;;;;;4994001;28;20110;-81
2022/01/26 08:01:59;;;;;;;46.13;27.57;;;2.20;78.90;;;;;;4994895;28;20106;-76
2022/01/26 08:04:24;;;;;;;50.97;28.00;;;2.20;78.90;;;;;;4994491;28;20501;-73
2022/01/26 08:06:50;;;;;;;49.93;28.70;;;2.30;78.90;;;;;;4994864;28;20398;-85
2022/01/26 08:09:17;;;;;;;49.83;27.77;;;2.40;78.80;;;;;;4994268;28;20085;-84
2022/01/26 08:11:42;;;;;;;45.60;26.77;;;2.50;78.70;;;;;;4994518;28;20054;-77
2022/01/26 08:14:08;;;;;;;45.40;26.60;;;2.60;78.80;;;;;;4994502;28;20437;-77
2022/01/26 08:16:35;;;;;;;47.67;27.90;;;2.60;78.70;;;;;;4993528;28;20085;-84
2022/01/26 08:19:01;;;;;;;42.33;27.60;;;2.60;78.80;;;;;;4994886;28;20048;-84
2022/01/26 08:21:27;;;;;;;52.40;28.17;;;2.70;78.80;;;;;;4994622;28;20518;-85
2022/01/26 08:24:01;;;;;;;47.53;26.93;;;2.80;78.90;;;;;;4994687;28;20076;-84
2022/01/26 08:26:36;;;;;;;42.60;27.10;;;2.80;79.00;;;;;;4994370;28;20034;-81
2022/01/26 08:29:03;;;;;;;41.00;26.73;;;2.80;79.00;;;;;;4994399;28;20023;-85
2022/01/26 08:31:28;;;;;;;43.73;27.33;;;2.90;78.90;;;;;;4993970;28;20416;-84
2022/01/26 08:33:55;;;;;;;44.53;26.83;;;2.90;78.60;;;;;;4993812;28;20018;-85
2022/01/26 08:36:20;;;;;;;41.73;26.83;;;3.00;79.00;;;;;;4994218;28;20034;-78
2022/01/26 08:38:46;;;;;;;45.30;28.27;;;3.00;78.70;;;;;;4994205;28;20026;-84
2022/01/26 08:41:12;;;;;;;48.00;29.67;;;3.10;78.80;;;;;;4994315;28;20019;-76
2022/01/26 08:43:38;;;;;;;48.23;28.67;;;3.20;79.00;;;;;;4992997;28;20070;-77
2022/01/26 08:46:03;;;;;;;46.00;29.70;;;3.20;78.90;;;;;;4994100;28;20108;-76
2022/01/26 08:48:29;;;;;;;46.57;29.67;;;3.30;78.70;;;;;;4994432;28;20026;-85
2022/01/26 08:50:55;;;;;;;51.00;29.70;;;3.30;78.70;;;;;;4994168;28;20037;-76
2022/01/26 08:53:23;;;;;;;47.73;30.30;;;3.40;78.50;;;;;;4993449;28;20506;-77
2022/01/26 08:55:51;;;;;;;53.03;31.07;;;3.40;78.60;;;;;;4992437;28;20042;-76
2022/01/26 08:58:17;;;;;;;46.93;30.40;;;3.40;78.90;;;;;;4992575;28;20478;-77
2022/01/26 09:00:43;;;;;;;48.63;30.90;;;3.50;79.00;;;;;;4994198;28;20057;-77
2022/01/26 09:03:09;;;;;;;50.73;31.43;;;3.50;78.40;;;;;;4993083;28;20057;-80
2022/01/26 09:05:34;;;;;;;50.90;33.03;;;3.50;78.70;;;;;;4993086;28;20081;-89
2022/01/26 09:08:00;;;;;;;53.70;32.73;;;3.60;78.70;;;;;;4992282;28;20052;-78
2022/01/26 09:10:28;;;;;;;54.30;33.30;;;3.70;78.90;;;;;;4993354;28;20478;-79
2022/01/26 09:12:54;;;;;;;54.53;32.30;;;3.70;78.80;;;;;;4993882;28;20440;-78
2022/01/26 09:15:26;;;;;;;51.23;32.40;;;3.80;78.80;;;;;;4993772;28;20064;-78
2022/01/26 09:17:53;;;;;;;50.38;30.60;;;3.80;78.50;;;;;;4992446;28;20034;-78
2022/01/26 09:20:18;;;;;;;42.20;27.93;;;3.90;78.60;;;;;;4993990;28;20033;-77
2022/01/26 09:22:44;;;;;;;41.90;26.00;;;3.90;78.10;;;;;;4993523;28;20026;-78
2022/01/26 09:25:10;;;;;;;42.10;26.37;;;4.00;77.70;;;;;;4992807;28;20355;-77
2022/01/26 09:27:36;;;;;;;39.23;25.03;;;4.10;77.20;;;;;;4993458;28;20034;-79
2022/01/26 09:30:03;;;;;;;41.20;26.33;;;4.20;76.80;;;;;;4993164;28;20102;-79
2022/01/26 09:32:29;;;;;;;43.47;26.83;;;4.20;76.30;;;;;;4993647;28;20033;-89
2022/01/26 09:34:55;;;;;;;39.87;25.97;;;4.30;75.70;;;;;;4993800;28;20022;-79
2022/01/26 09:37:21;;;;;;;39.43;24.93;;;4.40;75.60;;;;;;4993616;28;20030;-77
2022/01/26 09:39:48;;;;;;;34.77;23.50;;;4.40;75.30;;;;;;4993875;28;20070;-79
2022/01/26 09:42:15;;;;;;;37.13;24.83;;;4.50;75.10;;;;;;4992437;28;20467;-80
2022/01/26 09:44:42;;;;;;;39.07;24.73;;;4.60;75.00;;;;;;4992873;28;20124;-79
2022/01/26 09:47:09;;;;;;;38.63;24.70;;;4.60;75.00;;;;;;4993336;28;20161;-79
2022/01/26 09:49:36;;;;;;;43.30;24.87;;;4.70;74.60;;;;;;4993090;28;20376;-79
2022/01/26 09:52:07;;;;;;;34.50;22.63;;;4.80;74.50;;;;;;4993301;28;20105;-80
2022/01/26 09:54:33;;;;;;;32.77;22.87;;;4.80;74.20;;;;;;4993110;28;20043;-79
2022/01/26 09:57:04;;;;;;;33.00;22.73;;;4.90;74.00;;;;;;4993171;28;20472;-79
2022/01/26 09:59:31;;;;;;;33.37;22.13;;;5.00;73.80;;;;;;4992085;28;20394;-73
2022/01/26 10:01:58;;;;;;;30.17;20.67;;;5.00;73.60;;;;;;4993578;28;20024;-76
2022/01/26 10:04:29;;;;;;;35.40;21.23;;;5.10;73.50;;;;;;4993189;28;20022;-76
2022/01/26 10:07:22;;;;;;;33.93;20.90;;;5.20;73.40;;;;;;4993299;28;20030;-76
2022/01/26 10:18:50;;;;;;;27.67;19.43;;;5.40;72.00;;;;;;4993234;28;20042;-76
2022/01/26 10:21:16;;;;;;;35.00;20.23;;;5.50;71.70;;;;;;4993213;28;20062;-76
2022/01/26 10:23:42;;;;;;;26.77;18.57;;;5.60;71.60;;;;;;4993394;28;20069;-75
2022/01/26 10:26:14;;;;;;;30.13;18.50;;;5.70;71.20;;;;;;4993030;28;20022;-79
2022/01/26 10:28:55;;;;;;;25.17;18.13;;;5.70;70.50;;;;;;4992874;28;20165;-77
2022/01/26 10:31:28;;;;;;;31.97;20.67;;;5.80;70.40;;;;;;4992516;28;20022;-78
2022/01/26 10:34:15;;;;;;;31.80;20.23;;;5.80;70.40;;;;;;4991732;28;20054;-78
2022/01/26 10:36:40;;;;;;;32.57;19.97;;;5.90;70.40;;;;;;4995358;28;20032;-78
2022/01/26 10:42:03;;;;;;;32.50;19.20;;;6.00;69.90;;;;;;4995448;28;20034;-78
2022/01/26 10:47:38;;;;;;;27.63;18.63;;;6.20;69.30;;;;;;4995466;28;20038;-79
2022/01/26 10:51:21;;;;;;;29.83;19.67;;;6.20;69.00;;;;;;4996482;28;20424;-80
2022/01/26 10:53:17;;;;;;;32.40;19.43;;;6.30;68.70;;;;;;4996140;28;20045;-80
2022/01/26 10:55:43;;;;;;;31.23;20.07;;;6.40;68.70;;;;;;4996470;28;20077;-78
2022/01/26 10:58:09;;;;;;;33.13;20.13;;;6.40;68.80;;;;;;4995917;28;20022;-79
2022/01/26 11:00:39;;;;;;;30.50;20.00;;;6.50;68.70;;;;;;4996068;28;20434;-79
2022/01/26 11:03:06;;;;;;;29.67;19.67;;;6.50;68.40;;;;;;4996388;28;20037;-78
2022/01/26 11:05:33;;;;;;;32.50;20.40;;;6.60;68.20;;;;;;4996016;28;20465;-78
2022/01/26 11:08:00;;;;;;;31.17;19.67;;;6.70;67.90;;;;;;4995855;28;20055;-79
2022/01/26 11:10:37;;;;;;;30.67;19.87;;;6.80;67.60;;;;;;4994703;28;20049;-80
2022/01/26 11:13:05;;;;;;;34.87;23.53;;;6.80;67.50;;;;;;4995601;28;20479;-79
2022/01/26 11:15:31;;;;;;;29.30;18.80;;;6.90;67.40;;;;;;4995361;28;20117;-78
2022/01/26 11:18:19;;;;;;;28.53;19.10;;;7.00;67.10;;;;;;4995352;28;20026;-77
2022/01/26 11:20:51;;;;;;;30.27;18.33;;;7.00;66.10;;;;;;4995634;28;20022;-76
2022/01/26 11:23:37;;;;;;;31.57;20.83;;;7.10;66.30;;;;;;4994697;28;20479;-77
2022/01/26 11:26:03;;;;;;;28.03;19.67;;;7.10;65.90;;;;;;4995869;28;20270;-80
2022/01/26 11:28:29;;;;;;;26.23;18.53;;;7.20;65.80;;;;;;4995716;28;20092;-77
2022/01/26 11:30:59;;;;;;;33.43;19.70;;;7.20;65.90;;;;;;4995696;28;20022;-77
2022/01/26 11:33:28;;;;;;;30.57;20.37;;;7.30;66.10;;;;;;4995621;28;20022;-78
2022/01/26 11:35:56;;;;;;;28.30;19.40;;;7.30;65.90;;;;;;4995488;28;20025;-80
2022/01/26 11:46:32;;;;;;;27.20;18.70;;;7.70;65.50;;;;;;4995361;28;20045;-79
2022/01/26 11:49:10;;;;;;;30.83;19.33;;;7.70;65.10;;;;;;4995345;28;20026;-77
2022/01/26 11:51:50;;;;;;;26.07;19.07;;;7.80;65.00;;;;;;4995237;28;20383;-78
2022/01/26 11:54:25;;;;;;;28.10;19.53;;;7.90;64.80;;;;;;4995442;28;20500;-77
2022/01/26 11:57:07;;;;;;;33.90;20.50;;;8.00;64.40;;;;;;4995133;28;20022;-79
2022/01/26 11:59:36;;;;;;;32.40;19.63;;;8.00;64.20;;;;;;4993662;28;20026;-78
2022/01/26 12:02:08;;;;;;;28.47;19.30;;;8.00;64.00;;;;;;4995155;28;20440;-78
2022/01/26 12:04:37;;;;;;;28.73;19.38;;;8.10;64.20;;;;;;4994914;28;20050;-78
2022/01/26 12:07:20;;;;;;;29.23;18.13;;;8.20;63.90;;;;;;4994923;28;20034;-78
2022/01/26 12:09:45;;;;;;;27.87;18.27;;;8.20;63.60;;;;;;4994746;28;20487;-78
2022/01/26 12:12:19;;;;;;;28.60;18.77;;;8.30;63.70;;;;;;4995140;28;20120;-79
2022/01/26 12:15:02;;;;;;;28.30;17.50;;;8.40;63.60;;;;;;4995322;28;20027;-78
2022/01/26 12:17:33;;;;;;;;;;;8.40;62.70;;;;;;4995007;28;20042;-77
2022/01/26 12:32:06;;;;;;;28.80;18.03;;;8.40;62.60;;;;;;4994853;28;19905;-77
2022/01/26 12:39:14;;;;;;;26.70;17.93;;;8.80;63.00;;;;;;4993214;28;20438;-66
2022/01/26 12:41:47;;;;;;;22.93;17.47;;;8.90;62.80;;;;;;4992863;28;20019;-66
2022/01/26 12:44:13;;;;;;;28.53;17.77;;;9.00;62.60;;;;;;4993932;28;20092;-74
2022/01/26 12:46:40;;;;;;;24.13;18.00;;;9.00;62.20;;;;;;4994062;28;20420;-64
2022/01/26 12:49:08;;;;;;;23.27;17.37;;;9.10;61.40;;;;;;4993933;28;20031;-64
2022/01/26 12:51:43;;;;;;;31.37;19.03;;;9.20;60.70;;;;;;4993547;28;20026;-64
2022/01/26 12:54:09;;;;;;;25.77;18.33;;;9.30;59.90;;;;;;4991564;28;20499;-65
2022/01/26 12:56:35;;;;;;;30.37;18.90;;;9.30;60.10;;;;;;4991390;28;20038;-64
2022/01/26 12:59:02;;;;;;;25.73;18.90;;;9.30;60.20;;;;;;4991038;28;20362;-64
2022/01/26 13:01:28;;;;;;;24.90;17.40;;;9.40;60.30;;;;;;4992609;28;20054;-68
2022/01/26 13:04:00;;;;;;;22.70;17.50;;;9.50;60.60;;;;;;4993638;28;20062;-67
2022/01/26 13:06:31;;;;;;;24.03;17.57;;;9.60;60.10;;;;;;4994043;28;20116;-65
2022/01/26 13:09:01;;;;;;;25.67;18.13;;;9.60;60.20;;;;;;4993761;28;20046;-64
2022/01/26 13:11:29;;;;;;;25.90;17.97;;;9.60;59.60;;;;;;4993544;28;20142;-65
2022/01/26 13:16:41;;;;;;;;;;;9.70;58.40;;;;;;4993560;28;20081;-65
2022/01/26 13:19:29;;;;;;;27.43;17.17;;;9.70;58.50;;;;;;4993548;28;19921;-64
2022/01/26 13:27:38;;;;;;;25.37;17.43;;;9.70;58.70;;;;;;4993747;28;20073;-65
2022/01/26 13:30:38;;;;;;;23.77;16.23;;;9.70;58.90;;;;;;4993390;28;20030;-65
2022/01/26 13:41:08;;;;;;;21.20;15.87;;;9.80;58.30;;;;;;4992495;28;20057;-63
2022/01/26 13:52:19;;;;;;;25.97;16.13;;;9.80;58.10;;;;;;4988723;28;20034;-66
2022/01/26 13:55:17;;;;;;;23.93;17.07;;;9.80;57.90;;;;;;4993746;28;20034;-67
2022/01/26 13:58:05;;;;;;;23.67;15.63;;;9.80;57.70;;;;;;4993156;28;20034;-69
2022/01/26 14:00:38;;;;;;;23.50;17.33;;;9.70;58.00;;;;;;4993524;28;20461;-68
2022/01/26 14:03:06;;;;;;;25.80;17.20;;;9.70;57.80;;;;;;4993163;28;20022;-69
2022/01/26 14:05:32;;;;;;;27.57;16.97;;;9.70;57.70;;;;;;4993258;28;20022;-69
2022/01/26 14:07:57;;;;;;;23.43;16.97;;;9.70;57.90;;;;;;4991974;28;20077;-69
2022/01/26 14:10:24;;;;;;;25.60;17.70;;;9.70;57.80;;;;;;4993630;28;20030;-71
2022/01/26 14:12:50;;;;;;;27.03;17.20;;;9.70;58.00;;;;;;4996988;28;20030;-69
2022/01/26 14:15:23;;;;;;;24.83;17.60;;;9.70;57.90;;;;;;4997104;28;20023;-69
2022/01/26 14:20:42;;;;;;;27.10;17.40;;;9.70;58.00;;;;;;4996928;28;20027;-66
2022/01/26 14:25:35;;;;;;;35.60;23.83;;;9.60;57.80;;;;;;4997080;28;20031;-69
2022/01/26 14:28:06;;;;;;;65.13;42.80;;;9.60;57.80;;;;;;4996985;28;20405;-69
2022/01/26 15:01:22;;;;;;;29.17;21.90;;;9.10;59.70;;;;;;4996715;28;20095;-69
2022/01/26 15:22:48;;;;;;;41.27;27.20;;;8.70;61.20;;;;;;4995329;28;20026;-69
2022/01/26 15:51:10;;;;;;;46.73;32.27;;;8.20;62.60;;;;;;4995298;28;20022;-69
2022/01/26 15:59:04;;;;;;;44.50;28.70;;;8.10;63.10;;;;;;4995473;28;20056;-67
2022/01/26 16:21:13;;;;;;;37.90;26.97;;;7.80;64.70;;;;;;4994859;28;20402;-69
2022/01/26 16:27:57;;;;;;;40.63;28.23;;;7.70;65.00;;;;;;4994983;28;20069;-68
2022/01/26 17:02:08;;;;;;;47.47;32.43;;;7.20;66.80;;;;;;4991266;28;20041;-68
2022/01/26 18:49:38;;;;;;;55.90;37.97;;;5.80;73.80;;;;;;4992691;28;20099;-67
2022/01/26 18:52:05;;;;;;;65.27;40.63;;;5.80;74.00;;;;;;4992388;28;20101;-67
2022/01/26 18:54:33;;;;;;;64.10;39.60;;;5.70;74.10;;;;;;4996137;28;20015;-67
2022/01/26 18:57:01;;;;;;;60.60;40.40;;;5.70;74.30;;;;;;4995241;28;20606;-68
2022/01/26 18:59:27;;;;;;;62.57;42.70;;;5.70;74.60;;;;;;4996570;28;20023;-67
2022/01/26 19:01:55;;;;;;;66.47;43.53;;;5.70;74.80;;;;;;4996384;28;20022;-68
2022/01/26 19:04:28;;;;;;;60.83;40.53;;;5.70;74.80;;;;;;4996120;28;20172;-68
2022/01/26 19:06:55;;;;;;;72.53;43.45;;;5.70;74.80;;;;;;4996232;28;20117;-68
2022/01/26 19:09:24;;;;;;;69.80;44.50;;;5.60;74.30;;;;;;4996058;28;20046;-67
2022/01/26 19:11:50;;;;;;;70.73;44.50;;;5.60;74.50;;;;;;4996382;28;20443;-67
2022/01/26 19:14:16;;;;;;;69.10;43.30;;;5.60;74.80;;;;;;4996114;28;20054;-67
2022/01/26 19:16:52;;;;;;;68.77;43.47;;;5.50;74.60;;;;;;4996280;28;20108;-68
2022/01/26 19:22:00;;;;;;;70.17;43.83;;;5.40;74.80;;;;;;4995899;28;20030;-68
2022/01/26 19:45:56;;;;;;;70.33;43.40;;;5.30;75.00;;;;;;4995425;28;20034;-67
2022/01/26 19:51:03;;;;;;;62.23;39.37;;;5.20;74.60;;;;;;4995873;28;20076;-67
2022/01/26 19:53:28;;;;;;;59.40;38.00;;;5.20;74.60;;;;;;4995671;28;20022;-68
2022/01/26 19:55:54;;;;;;;50.90;34.03;;;5.20;74.40;;;;;;4995394;28;20386;-68
2022/01/26 19:58:20;;;;;;;48.70;32.03;;;5.20;74.10;;;;;;4995334;28;20038;-68
2022/01/26 20:00:46;;;;;;;60.67;33.10;;;5.10;73.90;;;;;;4995456;28;20494;-67
2022/01/26 20:03:14;;;;;;;67.73;47.17;;;5.10;74.10;;;;;;4995448;28;20054;-67
2022/01/26 20:05:41;;;;;;;61.87;41.50;;;5.10;74.10;;;;;;4994937;28;20015;-68
2022/01/26 20:08:52;;;;;;;59.70;39.63;;;5.00;73.90;;;;;;4994632;28;20074;-68
2022/01/26 20:11:24;;;;;;;61.17;37.83;;;5.00;73.90;;;;;;4994791;28;20092;-68